createdAt,value
2018-11-01T00:01:54.124Z,8.53
2018-11-01T00:04:35.536Z,10.25
2018-11-01T00:07:17.634Z,9.63
2018-11-01T00:09:59.780Z,9.38
2018-11-01T00:12:43.631Z,9.50
2018-11-01T00:15:26.066Z,9.48
2018-11-01T00:18:08.356Z,9.03
2018-11-01T00:20:50.755Z,9.88
2018-11-01T00:23:32.902Z,11.08
2018-11-01T00:26:14.626Z,10.72
2018-11-01T00:28:56.658Z,11.35
2018-11-01T00:31:38.442Z,11.65
2018-11-01T00:34:20.244Z,10.65
2018-11-01T00:37:01.972Z,11.45
2018-11-01T00:39:44.419Z,12.00
2018-11-01T00:42:26.690Z,11.50
2018-11-01T00:45:09.434Z,10.50
2018-11-01T00:47:51.507Z,11.33
2018-11-01T00:50:34.138Z,10.58
2018-11-01T00:53:16.353Z,10.08
2018-11-01T00:55:59.644Z,10.35
2018-11-01T00:58:41.446Z,10.85
2018-11-01T01:01:23.605Z,10.28
2018-11-01T01:04:07.428Z,10.05
2018-11-01T01:06:49.654Z,11.03
2018-11-01T01:09:31.352Z,9.90
2018-11-01T01:12:13.303Z,9.70
2018-11-01T01:14:55.187Z,10.10
2018-11-01T01:17:37.009Z,9.53
2018-11-01T01:20:19.213Z,10.05
2018-11-01T01:23:01.332Z,9.95
2018-11-01T01:25:43.125Z,10.68
2018-11-01T01:28:25.365Z,10.00
2018-11-01T01:31:07.432Z,9.63
2018-11-01T01:33:49.131Z,10.15
2018-11-01T01:36:31.186Z,9.53
2018-11-01T01:39:13.053Z,10.98
2018-11-01T01:41:55.112Z,10.32
2018-11-01T01:44:37.143Z,10.30
2018-11-01T01:47:19.281Z,11.57
2018-11-01T01:50:01.075Z,10.80
2018-11-01T01:52:43.345Z,10.70
2018-11-01T01:55:25.512Z,9.75
2018-11-01T01:58:07.341Z,10.70
2018-11-01T02:00:49.678Z,11.30
2018-11-01T02:03:32.188Z,10.68
2018-11-01T02:06:13.984Z,9.60
2018-11-01T02:08:56.528Z,9.43
2018-11-01T02:11:39.059Z,9.88
2018-11-01T02:14:21.301Z,9.33
2018-11-01T02:17:03.171Z,10.35
2018-11-01T02:19:45.355Z,9.45
2018-11-01T02:22:27.473Z,11.00
2018-11-01T02:25:09.612Z,10.65
2018-11-01T02:27:56.490Z,10.63
2018-11-01T02:30:38.525Z,11.48
2018-11-01T02:33:20.812Z,11.28
2018-11-01T02:36:02.986Z,11.45
2018-11-01T02:38:45.412Z,11.60
2018-11-01T02:41:27.405Z,11.88
2018-11-01T02:44:09.501Z,12.25
2018-11-01T02:46:51.498Z,11.22
2018-11-01T02:49:33.551Z,11.50
2018-11-01T02:52:15.614Z,11.38
2018-11-01T02:54:58.468Z,11.88
2018-11-01T02:57:40.278Z,11.53
2018-11-01T03:00:22.733Z,11.80
2018-11-01T03:03:05.096Z,12.15
2018-11-01T03:05:47.705Z,11.70
2018-11-01T03:08:30.107Z,11.73
2018-11-01T03:11:12.556Z,11.43
2018-11-01T03:13:54.724Z,10.68
2018-11-01T03:16:36.977Z,12.65
2018-11-01T03:19:19.537Z,11.38
2018-11-01T03:22:01.785Z,11.18
2018-11-01T03:24:43.952Z,11.20
2018-11-01T03:27:26.111Z,11.90
2018-11-01T03:30:08.535Z,11.75
2018-11-01T03:32:51.235Z,11.73
2018-11-01T03:35:33.703Z,12.35
2018-11-01T03:38:16.987Z,13.75
2018-11-01T03:40:59.255Z,12.80
2018-11-01T03:43:41.783Z,13.08
2018-11-01T03:46:23.960Z,12.45
2018-11-01T03:49:06.277Z,12.58
2018-11-01T03:51:48.548Z,12.33
2018-11-01T03:54:30.006Z,14.50
2018-11-01T03:57:12.331Z,13.20
2018-11-01T03:59:54.024Z,12.43
2018-11-01T04:02:35.877Z,12.30
2018-11-01T04:05:17.976Z,13.18
2018-11-01T04:07:59.805Z,12.70
2018-11-01T04:10:41.472Z,12.93
2018-11-01T04:13:23.830Z,12.63
2018-11-01T04:16:06.198Z,12.33
2018-11-01T04:18:47.926Z,12.30
2018-11-01T04:21:30.334Z,13.75
2018-11-01T04:24:12.461Z,11.70
2018-11-01T04:26:55.025Z,13.00
2018-11-01T04:29:37.152Z,16.55
2018-11-01T04:32:18.993Z,13.15
2018-11-01T04:35:00.804Z,13.25
2018-11-01T04:37:42.415Z,13.10
2018-11-01T04:40:26.271Z,12.80
2018-11-01T04:43:08.017Z,12.65
2018-11-01T04:45:50.380Z,12.25
2018-11-01T04:48:32.750Z,12.55
2018-11-01T04:51:14.433Z,11.93
2018-11-01T04:53:57.005Z,12.05
2018-11-01T04:56:38.868Z,12.55
2018-11-01T04:59:21.239Z,11.83
2018-11-01T05:02:03.078Z,11.73
2018-11-01T05:04:45.048Z,12.13
2018-11-01T05:07:26.897Z,11.73
2018-11-01T05:10:11.127Z,12.23
2018-11-01T05:12:53.302Z,10.55
2018-11-01T05:15:35.663Z,11.63
2018-11-01T05:18:17.730Z,11.12
2018-11-01T05:21:00.480Z,10.75
2018-11-01T05:23:42.485Z,10.72
2018-11-01T05:26:24.691Z,11.45
2018-11-01T05:29:07.126Z,10.75
2018-11-01T05:31:48.803Z,11.10
2018-11-01T05:34:30.516Z,11.65
2018-11-01T05:37:12.850Z,11.70
2018-11-01T05:39:54.677Z,10.90
2018-11-01T05:42:36.997Z,11.12
2018-11-01T05:45:18.897Z,10.35
2018-11-01T05:48:00.902Z,10.85
2018-11-01T05:50:43.416Z,11.78
2018-11-01T05:53:25.286Z,10.98
2018-11-01T05:56:07.405Z,11.55
2018-11-01T05:58:49.203Z,11.55
2018-11-01T06:01:32.797Z,10.55
2018-11-01T06:04:14.900Z,11.83
2018-11-01T06:06:56.984Z,10.70
2018-11-01T06:09:38.691Z,10.98
2018-11-01T06:12:20.930Z,11.63
2018-11-01T06:15:03.278Z,10.03
2018-11-01T06:17:45.440Z,11.38
2018-11-01T06:20:27.435Z,11.28
2018-11-01T06:23:09.419Z,10.38
2018-11-01T06:25:51.523Z,9.70
2018-11-01T06:28:34.554Z,9.23
2018-11-01T06:31:16.636Z,8.93
2018-11-01T06:33:58.794Z,9.58
2018-11-01T06:36:41.840Z,7.95
2018-11-01T06:39:24.207Z,8.90
2018-11-01T06:42:07.018Z,8.20
2018-11-01T06:44:49.217Z,7.65
2018-11-01T06:47:31.257Z,7.08
2018-11-01T06:50:13.428Z,7.25
2018-11-01T06:52:55.423Z,7.17
2018-11-01T06:55:37.219Z,7.12
2018-11-01T06:58:19.426Z,6.75
2018-11-01T07:01:02.172Z,6.62
2018-11-01T07:03:44.367Z,6.50
2018-11-01T07:06:26.190Z,7.50
2018-11-01T07:09:11.592Z,7.28
2018-11-01T07:11:53.612Z,7.28
2018-11-01T07:14:35.568Z,7.95
2018-11-01T07:17:18.134Z,8.48
2018-11-01T07:20:00.348Z,8.25
2018-11-01T07:22:43.031Z,8.70
2018-11-01T07:25:25.836Z,8.33
2018-11-01T07:28:08.121Z,8.35
2018-11-01T07:30:50.263Z,8.33
2018-11-01T07:33:32.206Z,8.45
2018-11-01T07:36:14.618Z,7.50
2018-11-01T07:38:56.337Z,7.92
2018-11-01T07:41:39.180Z,7.42
2018-11-01T07:44:21.434Z,8.93
2018-11-01T07:47:03.938Z,7.20
2018-11-01T07:49:46.414Z,6.37
2018-11-01T07:52:28.975Z,6.85
2018-11-01T07:55:14.869Z,4.93
2018-11-01T07:57:56.809Z,5.30
2018-11-01T08:00:38.601Z,4.73
2018-11-01T08:03:20.067Z,4.70
2018-11-01T08:06:01.601Z,4.60
2018-11-01T08:08:43.655Z,4.47
2018-11-01T08:11:25.433Z,4.50
2018-11-01T08:14:08.063Z,4.73
2018-11-01T08:16:50.289Z,4.20
2018-11-01T08:19:31.770Z,4.20
2018-11-01T08:22:13.265Z,3.33
2018-11-01T08:24:54.751Z,3.20
2018-11-01T08:27:36.275Z,3.27
2018-11-01T08:30:18.592Z,3.20
2018-11-01T08:33:00.011Z,3.63
2018-11-01T08:35:42.073Z,3.47
2018-11-01T08:38:23.913Z,3.40
2018-11-01T08:41:06.007Z,3.10
2018-11-01T08:43:47.453Z,3.63
2018-11-01T08:46:29.192Z,3.33
2018-11-01T08:49:10.621Z,3.20
2018-11-01T08:51:52.817Z,2.70
2018-11-01T08:54:35.343Z,3.03
2018-11-01T08:57:17.034Z,2.90
2018-11-01T08:59:58.796Z,3.00
2018-11-01T09:02:41.115Z,2.77
2018-11-01T09:05:23.064Z,2.70
2018-11-01T09:08:04.957Z,2.60
2018-11-01T09:10:46.897Z,3.20
2018-11-01T09:13:28.260Z,2.57
2018-11-01T09:16:10.185Z,2.50
2018-11-01T09:18:52.376Z,2.10
2018-11-01T09:21:33.966Z,2.10
2018-11-01T09:24:15.998Z,2.07
2018-11-01T09:26:57.848Z,2.20
2018-11-01T09:29:39.676Z,2.13
2018-11-01T09:32:21.172Z,1.73
2018-11-01T09:35:02.613Z,1.90
2018-11-01T09:37:44.912Z,2.00
2018-11-01T09:40:26.419Z,2.17
2018-11-01T09:43:09.060Z,1.80
2018-11-01T09:45:50.840Z,1.80
2018-11-01T09:48:32.393Z,2.20
2018-11-01T09:51:14.405Z,1.70
2018-11-01T09:53:56.204Z,2.00
2018-11-01T09:56:37.994Z,2.53
2018-11-01T09:59:19.797Z,2.17
2018-11-01T10:02:01.651Z,1.90
2018-11-01T10:04:43.388Z,1.77
2018-11-01T10:07:25.329Z,2.20
2018-11-01T10:10:09.861Z,2.10
2018-11-01T10:12:51.892Z,2.37
2018-11-01T10:15:33.558Z,2.00
2018-11-01T10:18:15.709Z,2.00
2018-11-01T10:20:57.031Z,2.10
2018-11-01T10:23:39.226Z,2.37
2018-11-01T10:26:20.855Z,2.43
2018-11-01T10:29:02.634Z,1.97
2018-11-01T10:31:44.877Z,1.93
2018-11-01T10:34:26.186Z,2.00
2018-11-01T10:37:07.938Z,2.17
2018-11-01T10:39:49.742Z,1.90
2018-11-01T10:42:31.524Z,2.07
2018-11-01T10:45:13.092Z,2.00
2018-11-01T10:47:54.677Z,2.37
2018-11-01T10:50:36.072Z,2.17
2018-11-01T10:53:17.993Z,2.37
2018-11-01T10:55:59.408Z,1.83
2018-11-01T10:58:41.075Z,2.20
2018-11-01T11:01:28.454Z,2.10
2018-11-01T11:04:10.339Z,2.43
2018-11-01T11:06:52.703Z,2.23
2018-11-01T11:09:34.301Z,2.37
2018-11-01T11:12:16.548Z,2.03
2018-11-01T11:14:58.329Z,2.00
2018-11-01T11:17:40.721Z,2.10
2018-11-01T11:20:22.792Z,1.93
2018-11-01T11:23:04.286Z,2.40
2018-11-01T11:25:45.710Z,2.37
2018-11-01T11:28:27.653Z,2.30
2018-11-01T11:31:09.204Z,2.30
2018-11-01T11:33:50.648Z,2.00
2018-11-01T11:36:32.675Z,2.00
2018-11-01T11:39:14.287Z,3.20
2018-11-01T11:41:56.183Z,2.53
2018-11-01T11:44:38.175Z,2.70
2018-11-01T11:47:20.948Z,2.30
2018-11-01T11:50:02.387Z,2.90
2018-11-01T11:52:44.785Z,2.17
2018-11-01T11:55:26.693Z,2.70
2018-11-01T11:58:08.222Z,2.50
2018-11-01T12:00:49.941Z,3.40
2018-11-01T12:03:32.064Z,3.00
2018-11-01T12:06:13.740Z,3.00
2018-11-01T12:08:55.581Z,2.87
2018-11-01T12:11:37.356Z,2.87
2018-11-01T12:14:20.330Z,2.90
2018-11-01T12:17:02.733Z,2.77
2018-11-01T12:19:44.544Z,3.00
2018-11-01T12:22:26.848Z,2.87
2018-11-01T12:25:08.870Z,3.00
2018-11-01T12:27:50.265Z,3.07
2018-11-01T12:30:31.512Z,3.13
2018-11-01T12:33:13.758Z,3.40
2018-11-01T12:35:55.338Z,2.80
2018-11-01T12:38:37.325Z,3.43
2018-11-01T12:41:19.139Z,2.70
2018-11-01T12:44:00.803Z,3.17
2018-11-01T12:46:42.163Z,2.67
2018-11-01T12:49:24.187Z,3.03
2018-11-01T12:52:06.111Z,2.80
2018-11-01T12:54:47.527Z,3.13
2018-11-01T12:57:29.360Z,3.90
2018-11-01T13:00:12.626Z,3.43
2018-11-01T13:02:54.115Z,3.70
2018-11-01T13:05:35.726Z,3.93
2018-11-01T13:08:17.211Z,3.57
2018-11-01T13:10:58.589Z,3.50
2018-11-01T13:13:39.918Z,3.60
2018-11-01T13:16:21.702Z,3.73
2018-11-01T13:19:03.092Z,3.90
2018-11-01T13:21:45.013Z,4.23
2018-11-01T13:24:26.605Z,4.60
2018-11-01T13:27:08.024Z,4.40
2018-11-01T13:29:49.552Z,4.70
2018-11-01T13:32:31.400Z,4.40
2018-11-01T13:35:13.561Z,3.70
2018-11-01T13:37:55.326Z,4.17
2018-11-01T13:40:38.372Z,4.03
2018-11-01T13:43:19.724Z,4.70
2018-11-01T13:46:01.091Z,4.27
2018-11-01T13:48:42.806Z,4.73
2018-11-01T13:51:24.877Z,3.80
2018-11-01T13:54:07.588Z,4.37
2018-11-01T13:56:48.979Z,4.00
2018-11-01T13:59:31.238Z,4.80
2018-11-01T14:02:13.048Z,4.40
2018-11-01T14:04:56.719Z,4.70
2018-11-01T14:07:38.636Z,4.33
2018-11-01T14:10:20.550Z,4.70
2018-11-01T14:13:02.412Z,4.80
2018-11-01T14:15:44.982Z,4.77
2018-11-01T14:18:26.546Z,5.33
2018-11-01T14:21:08.358Z,4.57
2018-11-01T14:23:49.831Z,4.47
2018-11-01T14:26:31.664Z,4.27
2018-11-01T14:29:13.685Z,4.03
2018-11-01T14:31:56.268Z,4.40
2018-11-01T14:34:38.109Z,4.40
2018-11-01T14:37:20.256Z,4.90
2018-11-01T14:40:01.905Z,5.10
2018-11-01T14:42:43.830Z,7.73
2018-11-01T14:45:25.297Z,5.00
2018-11-01T14:48:07.222Z,4.90
2018-11-01T14:50:49.176Z,4.37
2018-11-01T14:53:31.130Z,4.63
2018-11-01T14:56:14.282Z,4.53
2018-11-01T14:58:57.277Z,4.33
2018-11-01T15:01:37.393Z,4.67
2018-11-01T15:04:19.176Z,4.40
2018-11-01T15:07:01.034Z,5.83
2018-11-01T15:09:43.265Z,4.57
2018-11-01T15:12:25.103Z,6.77
2018-11-01T15:15:08.826Z,5.40
2018-11-01T15:17:50.229Z,6.90
2018-11-01T15:20:31.946Z,5.67
2018-11-01T15:23:13.756Z,5.57
2018-11-01T15:25:56.128Z,5.17
2018-11-01T15:28:38.310Z,5.50
2018-11-01T15:31:20.891Z,5.87
2018-11-01T15:34:03.148Z,5.13
2018-11-01T15:36:45.153Z,4.97
2018-11-01T15:39:26.682Z,5.00
2018-11-01T15:42:08.478Z,4.80
2018-11-01T15:44:50.871Z,4.80
2018-11-01T15:47:32.766Z,5.13
2018-11-01T15:50:14.752Z,5.40
2018-11-01T15:52:56.216Z,5.40
2018-11-01T15:55:37.482Z,5.23
2018-11-01T15:58:19.165Z,6.30
2018-11-01T16:01:01.415Z,6.08
2018-11-01T16:03:43.573Z,6.00
2018-11-01T16:06:25.485Z,6.40
2018-11-01T16:09:12.389Z,6.37
2018-11-01T16:11:54.314Z,6.28
2018-11-01T16:14:36.069Z,6.58
2018-11-01T16:17:19.060Z,7.25
2018-11-01T16:20:01.687Z,7.15
2018-11-01T16:22:43.919Z,8.38
2018-11-01T16:25:25.625Z,7.17
2018-11-01T16:28:09.352Z,7.62
2018-11-01T16:30:51.412Z,8.15
2018-11-01T16:33:33.568Z,9.00
2018-11-01T16:36:17.296Z,8.05
2018-11-01T16:39:00.959Z,6.40
2018-11-01T16:41:42.683Z,7.05
2018-11-01T16:44:24.850Z,6.60
2018-11-01T16:47:07.074Z,6.08
2018-11-01T16:49:48.845Z,7.45
2018-11-01T16:52:31.049Z,8.48
2018-11-01T16:55:12.796Z,8.50
2018-11-01T16:57:54.723Z,8.28
2018-11-01T17:00:36.858Z,8.50
2018-11-01T17:03:18.636Z,8.30
2018-11-01T17:06:01.054Z,7.78
2018-11-01T17:08:43.770Z,8.28
2018-11-01T17:11:26.033Z,8.40
2018-11-01T17:14:08.296Z,9.28
2018-11-01T17:16:50.371Z,10.00
2018-11-01T17:19:32.702Z,9.13
2018-11-01T17:22:14.587Z,9.48
2018-11-01T17:24:57.499Z,7.97
2018-11-01T17:27:40.405Z,8.40
2018-11-01T17:30:21.857Z,10.23
2018-11-01T17:33:04.701Z,9.60
2018-11-01T17:35:47.184Z,10.10
2018-11-01T17:38:30.097Z,10.82
2018-11-01T17:41:12.344Z,9.78
2018-11-01T17:43:55.042Z,9.53
2018-11-01T17:46:36.898Z,10.90
2018-11-01T17:49:19.423Z,10.18
2018-11-01T17:52:01.212Z,9.50
2018-11-01T17:54:43.620Z,9.55
2018-11-01T17:57:25.867Z,10.30
2018-11-01T18:00:10.639Z,8.98
2018-11-01T18:02:53.195Z,9.30
2018-11-01T18:05:35.501Z,8.98
2018-11-01T18:08:17.079Z,9.87
2018-11-01T18:11:00.241Z,9.48
2018-11-01T18:13:43.291Z,10.93
2018-11-01T18:16:27.011Z,9.63
2018-11-01T18:19:09.725Z,10.40
2018-11-01T18:21:52.395Z,10.85
2018-11-01T18:24:34.256Z,10.90
2018-11-01T18:27:16.626Z,11.65
2018-11-01T18:29:59.330Z,10.85
2018-11-01T18:32:41.600Z,11.00
2018-11-01T18:35:24.077Z,11.05
2018-11-01T18:38:06.108Z,12.05
2018-11-01T18:40:48.721Z,10.58
2018-11-01T18:43:31.052Z,10.82
2018-11-01T18:46:12.803Z,11.93
2018-11-01T18:48:54.859Z,11.78
2018-11-01T18:51:36.667Z,11.38
2018-11-01T18:54:18.966Z,10.98
2018-11-01T18:57:01.198Z,9.75
2018-11-01T18:59:43.407Z,11.15
2018-11-01T19:02:25.522Z,10.20
2018-11-01T19:05:08.660Z,9.20
2018-11-01T19:07:50.901Z,9.93
2018-11-01T19:10:33.180Z,9.20
2018-11-01T19:13:15.565Z,9.88
2018-11-01T19:15:57.502Z,9.50
2018-11-01T19:18:39.853Z,9.90
2018-11-01T19:21:21.854Z,10.03
2018-11-01T19:24:03.969Z,10.75
2018-11-01T19:26:47.115Z,10.65
2018-11-01T19:29:29.422Z,10.80
2018-11-01T19:32:11.427Z,11.50
2018-11-01T19:34:53.276Z,11.33
2018-11-01T19:37:36.825Z,11.50
2018-11-01T19:40:19.205Z,12.18
2018-11-01T19:43:01.486Z,11.45
2018-11-01T19:45:43.696Z,11.15
2018-11-01T19:48:27.380Z,11.03
2018-11-01T19:51:09.317Z,10.68
2018-11-01T19:53:51.228Z,21.65
2018-11-01T19:56:33.976Z,12.15
2018-11-01T19:59:16.068Z,13.68
2018-11-01T20:01:58.069Z,12.33
2018-11-01T20:04:40.384Z,12.88
2018-11-01T20:07:22.578Z,16.65
2018-11-01T20:10:04.395Z,18.60
2018-11-01T20:12:46.841Z,11.97
2018-11-01T20:15:29.101Z,11.63
2018-11-01T20:18:10.944Z,13.48
2018-11-01T20:20:53.247Z,11.60
2018-11-01T20:23:35.404Z,12.43
2018-11-01T20:26:17.543Z,13.65
2018-11-01T20:28:59.857Z,13.88
2018-11-01T20:31:42.895Z,12.85
2018-11-01T20:34:25.007Z,14.10
2018-11-01T20:37:07.632Z,20.15
2018-11-01T20:39:50.444Z,16.67
2018-11-01T20:42:32.854Z,16.42
2018-11-01T20:45:15.737Z,15.05
2018-11-01T20:47:57.673Z,13.90
2018-11-01T20:50:39.459Z,12.43
2018-11-01T20:53:21.731Z,15.68
2018-11-01T20:56:04.277Z,15.05
2018-11-01T20:58:46.456Z,16.25
2018-11-01T21:01:29.659Z,15.50
2018-11-01T21:04:11.199Z,16.20
2018-11-01T21:06:53.750Z,17.37
2018-11-01T21:09:35.856Z,16.45
2018-11-01T21:12:18.571Z,15.08
2018-11-01T21:15:01.539Z,15.05
2018-11-01T21:17:43.970Z,15.08
2018-11-01T21:20:26.055Z,14.78
2018-11-01T21:23:08.515Z,13.80
2018-11-01T21:25:50.640Z,14.10
2018-11-01T21:28:32.362Z,14.85
2018-11-01T21:31:14.553Z,13.88
2018-11-01T21:33:56.771Z,13.85
2018-11-01T21:36:39.214Z,14.23
2018-11-01T21:39:20.924Z,14.07
2018-11-01T21:42:03.473Z,13.85
2018-11-01T21:44:45.716Z,14.63
2018-11-01T21:47:28.757Z,14.43
2018-11-01T21:50:11.224Z,13.90
2018-11-01T21:52:53.568Z,15.00
2018-11-01T21:55:35.549Z,15.55
2018-11-01T21:58:17.783Z,14.85
2018-11-01T22:01:00.575Z,13.88
2018-11-01T22:03:44.125Z,15.40
2018-11-01T22:06:26.536Z,15.13
2018-11-01T22:09:09.656Z,14.90
2018-11-01T22:11:51.450Z,16.45
2018-11-01T22:14:33.141Z,17.25
2018-11-01T22:17:15.129Z,15.65
2018-11-01T22:19:57.372Z,16.52
2018-11-01T22:22:39.897Z,14.87
2018-11-01T22:25:22.245Z,15.53
2018-11-01T22:28:04.065Z,15.23
2018-11-01T22:30:45.962Z,15.88
2018-11-01T22:33:27.669Z,15.00
2018-11-01T22:36:10.757Z,12.68
2018-11-01T22:38:52.576Z,11.57
2018-11-01T22:41:34.870Z,12.43
2018-11-01T22:44:17.319Z,10.85
2018-11-01T22:46:59.357Z,11.90
2018-11-01T22:49:47.853Z,12.00
2018-11-01T22:52:29.766Z,12.15
2018-11-01T22:55:12.321Z,11.70
2018-11-01T22:57:54.581Z,13.78
2018-11-01T23:00:40.991Z,12.70
2018-11-01T23:03:22.681Z,13.22
2018-11-01T23:06:04.854Z,13.75
2018-11-01T23:08:47.053Z,14.05
2018-11-01T23:11:28.809Z,15.23
2018-11-01T23:14:10.952Z,16.70
2018-11-01T23:16:53.154Z,16.75
2018-11-01T23:19:35.189Z,15.80
2018-11-01T23:22:17.152Z,15.63
2018-11-01T23:25:00.706Z,14.87
2018-11-01T23:27:42.841Z,14.65
2018-11-01T23:30:24.992Z,12.35
2018-11-01T23:33:07.869Z,13.48
2018-11-01T23:35:50.893Z,13.30
2018-11-01T23:38:38.889Z,12.63
2018-11-01T23:41:26.065Z,12.82
2018-11-01T23:44:14.313Z,14.30
2018-11-01T23:47:01.622Z,13.15
2018-11-01T23:49:48.613Z,13.53
2018-11-01T23:52:31.611Z,12.73
2018-11-01T23:55:13.320Z,12.68
2018-11-01T23:57:56.235Z,14.55
